カーブル の空港の天気 - METARとTAF

カーブル国際空港 ( OAKB / KBL ) - アフガニスタン カーブル
飛行場実況気象(Metar)
観測時間01/23 08:20 AFT (01/23 03:50 UTC)
風向・風速北北西 2m/s
視程3400m
天気現象煙霧
なし
気温2℃
湿度35%
気圧1017hPa
METAROAKB 230350Z 33004KT 3400 HZ NSC 02/M12 Q1017 NOSIG RMK A3004 YO YLO
過去の天気等 Google飛行場航空写真 Wunderground天気予報

過去48時間のMETAR

飛行場予報(TAF)
発表時間: 1/23 06:00 AFT (1/23 01:30 UTC)
予報対象時間: 23日5時 AFT ~ 24日4時 AFT
風向・風速不定 1m/s
視程5,000m
天気現象
なし
23日5時 AFT ~ 23日8時 AFT に一時的に
視程3,000m
23日11時 AFT ~ 23日13時 AFT に徐々に
視程8,000m
天気現象運行に影響にある天気現象が終了
23日18時 AFT ~ 23日20時 AFT に徐々に
視程2,500m
天気現象
23日20時 AFT ~ 23日22時 AFT に徐々に
視程1,400m
TAF AMD OAKB 230130Z 2301/2324 VRB02KT 5000 FU NSC
TEMPO 2301/2304 3000
BECMG 2307/2309 8000 NSW
BECMG 2314/2316 2500 FU
BECMG 2316/2318 1400